Time;durP1;ratioP1;P1;durP2;ratioP2;P2;SDS_P1;SDS_P2;PMS_P1;PMS_P2;Temp;Humidity;BMP_temperature;BMP_pressure;BME280_temperature;BME280_humidity;BME280_pressure;Samples;Min_cycle;Max_cycle;Signal;HPM_P1;HPM_P2
2021/03/19 00:01:18;;;;;;;0.20;0.20;;;;;;;;;;6195606;23;20180;-64
2021/03/19 00:03:45;;;;;;;0.00;0.00;;;;;;;;;;6194848;23;20195;-65
2021/03/19 00:06:12;;;;;;;0.10;0.10;;;;;;;;;;6194957;23;20151;-65
2021/03/19 00:08:38;;;;;;;0.00;0.00;;;;;;;;;;6193889;23;20194;-65
2021/03/19 00:11:06;;;;;;;0.00;0.00;;;;;;;;;;6191843;23;20151;-65
2021/03/19 00:13:34;;;;;;;1.40;0.57;;;;;;;;;;6192165;23;20192;-65
2021/03/19 00:16:02;;;;;;;0.00;0.00;;;;;;;;;;6168417;23;20170;-65
2021/03/19 00:18:29;;;;;;;0.00;0.00;;;;;;;;;;6195607;23;20274;-64
2021/03/19 00:20:56;;;;;;;0.60;0.50;;;;;;;;;;6192787;23;20136;-64
2021/03/19 00:23:25;;;;;;;0.00;0.00;;;;;;;;;;6193162;23;20190;-65
2021/03/19 00:25:52;;;;;;;1.90;0.70;;;;;;;;;;6193541;23;20236;-64
2021/03/19 00:28:18;;;;;;;9.80;0.97;;;;;;;;;;6167506;23;20183;-64
2021/03/19 00:30:46;;;;;;;0.10;0.10;;;;;;;;;;6194627;23;20217;-65
2021/03/19 00:33:13;;;;;;;0.00;0.00;;;;;;;;;;6195130;23;20179;-64
2021/03/19 00:35:41;;;;;;;0.00;0.00;;;;;;;;;;6194539;23;20191;-64
2021/03/19 00:38:10;;;;;;;0.30;0.23;;;;;;;;;;6194715;23;20271;-64
2021/03/19 00:40:38;;;;;;;0.00;0.00;;;;;;;;;;6193043;23;20718;-65
2021/03/19 00:43:06;;;;;;;0.00;0.00;;;;;;;;;;6194137;23;20202;-64
2021/03/19 00:45:32;;;;;;;0.00;0.00;;;;;;;;;;6193766;23;20515;-64
2021/03/19 00:48:00;;;;;;;0.00;0.00;;;;;;;;;;6193217;23;20205;-64
2021/03/19 00:50:31;;;;;;;0.13;0.13;;;;;;;;;;6194440;23;20207;-65
2021/03/19 00:52:57;;;;;;;0.30;0.30;;;;;;;;;;6194551;23;20174;-64
2021/03/19 00:55:25;;;;;;;13.50;0.77;;;;;;;;;;6194789;23;20211;-64
2021/03/19 00:57:51;;;;;;;0.17;0.17;;;;;;;;;;6194837;23;20237;-65
2021/03/19 01:00:19;;;;;;;0.53;0.10;;;;;;;;;;6157086;23;20207;-64
2021/03/19 01:02:49;;;;;;;0.00;0.00;;;;;;;;;;6193911;23;20191;-65
2021/03/19 01:05:26;;;;;;;1.27;0.10;;;;;;;;;;6194325;23;20888;-65
2021/03/19 01:07:53;;;;;;;0.00;0.00;;;;;;;;;;6191008;23;20154;-64
2021/03/19 01:10:30;;;;;;;4.17;2.20;;;;;;;;;;6166020;23;20897;-64
2021/03/19 01:12:57;;;;;;;0.30;0.30;;;;;;;;;;6197129;23;20179;-65
2021/03/19 01:15:24;;;;;;;1.13;0.23;;;;;;;;;;6206290;23;20321;-65
2021/03/19 01:17:51;;;;;;;0.10;0.10;;;;;;;;;;6204539;23;20783;-65
2021/03/19 01:20:19;;;;;;;0.00;0.00;;;;;;;;;;6204992;23;20948;-65
2021/03/19 01:22:46;;;;;;;0.00;0.00;;;;;;;;;;6204092;23;20652;-65
2021/03/19 01:25:22;;;;;;;1.80;0.90;;;;;;;;;;6202691;23;20637;-62
2021/03/19 01:27:49;;;;;;;0.00;0.00;;;;;;;;;;6202321;23;20190;-65
2021/03/19 01:30:18;;;;;;;0.00;0.00;;;;;;;;;;6179031;23;20198;-64
2021/03/19 01:32:46;;;;;;;0.20;0.20;;;;;;;;;;6206712;23;21069;-65
2021/03/19 01:35:17;;;;;;;0.00;0.00;;;;;;;;;;6202494;23;20175;-64
2021/03/19 01:37:44;;;;;;;1.07;0.43;;;;;;;;;;6194068;23;20303;-65
2021/03/19 01:40:13;;;;;;;0.00;0.00;;;;;;;;;;6194469;23;20151;-65
2021/03/19 01:42:41;;;;;;;0.00;0.00;;;;;;;;;;6194327;23;20203;-64
2021/03/19 01:45:09;;;;;;;0.00;0.00;;;;;;;;;;6194100;23;20195;-62
2021/03/19 01:47:55;;;;;;;1.60;0.67;;;;;;;;;;6194886;23;20189;-64
2021/03/19 01:50:41;;;;;;;0.00;0.00;;;;;;;;;;6195129;23;20187;-64
2021/03/19 01:53:27;;;;;;;0.33;0.17;;;;;;;;;;6194809;23;20143;-64
2021/03/19 01:56:12;;;;;;;0.57;0.37;;;;;;;;;;6195593;23;20144;-64
2021/03/19 01:58:57;;;;;;;5.33;1.43;;;;;;;;;;6194741;23;20156;-65
2021/03/19 02:01:42;;;;;;;0.50;0.43;;;;;;;;;;6168486;23;20174;-64
2021/03/19 02:04:29;;;;;;;0.10;0.10;;;;;;;;;;6195435;23;20151;-64
2021/03/19 02:07:14;;;;;;;0.00;0.00;;;;;;;;;;6195212;23;20873;-65
2021/03/19 02:09:59;;;;;;;0.10;0.10;;;;;;;;;;6193343;23;21021;-65
2021/03/19 02:12:45;;;;;;;0.00;0.00;;;;;;;;;;6195088;23;20167;-64
2021/03/19 02:15:29;;;;;;;0.20;0.10;;;;;;;;;;6194290;23;20556;-64
2021/03/19 02:18:15;;;;;;;0.90;0.90;;;;;;;;;;6168209;23;20213;-64
2021/03/19 02:21:02;;;;;;;0.83;0.50;;;;;;;;;;6195325;23;20610;-64
2021/03/19 02:23:47;;;;;;;0.57;0.57;;;;;;;;;;6195529;23;20168;-64
2021/03/19 02:26:32;;;;;;;0.00;0.00;;;;;;;;;;6169049;23;20222;-65
2021/03/19 02:29:18;;;;;;;6.13;0.40;;;;;;;;;;6194922;23;20412;-65
2021/03/19 02:32:03;;;;;;;0.00;0.00;;;;;;;;;;6195138;23;20189;-64
2021/03/19 02:34:53;;;;;;;0.50;0.43;;;;;;;;;;6194151;23;20191;-64
2021/03/19 02:37:21;;;;;;;0.30;0.10;;;;;;;;;;6177195;23;20261;-64
2021/03/19 02:39:48;;;;;;;0.00;0.00;;;;;;;;;;6193529;23;20188;-64
2021/03/19 02:42:17;;;;;;;0.87;0.40;;;;;;;;;;6195897;23;20326;-65
2021/03/19 02:44:44;;;;;;;0.00;0.00;;;;;;;;;;6195404;23;20152;-64
2021/03/19 02:47:13;;;;;;;0.20;0.20;;;;;;;;;;6196515;23;20214;-64
2021/03/19 02:49:40;;;;;;;0.00;0.00;;;;;;;;;;6192323;23;20195;-64
2021/03/19 02:52:06;;;;;;;0.00;0.00;;;;;;;;;;6196182;23;20178;-62
2021/03/19 02:54:33;;;;;;;3.87;1.40;;;;;;;;;;6195908;23;20668;-64
2021/03/19 02:57:00;;;;;;;0.10;0.10;;;;;;;;;;6202467;23;20685;-64
2021/03/19 02:59:26;;;;;;;4.67;0.20;;;;;;;;;;6195550;23;20302;-64
2021/03/19 03:01:53;;;;;;;0.90;0.80;;;;;;;;;;6195376;23;20249;-64
2021/03/19 03:04:20;;;;;;;7.30;1.40;;;;;;;;;;6196068;23;20188;-64
2021/03/19 03:06:46;;;;;;;1.33;0.97;;;;;;;;;;6195005;23;20195;-64
2021/03/19 03:09:14;;;;;;;0.87;0.70;;;;;;;;;;6195129;23;20256;-64
2021/03/19 03:11:41;;;;;;;0.00;0.00;;;;;;;;;;6195431;23;20499;-65
2021/03/19 03:14:09;;;;;;;0.97;0.97;;;;;;;;;;6196318;23;20209;-65
2021/03/19 03:16:36;;;;;;;0.00;0.00;;;;;;;;;;6194951;23;20182;-64
2021/03/19 03:19:04;;;;;;;0.00;0.00;;;;;;;;;;6190908;23;20202;-64
2021/03/19 03:21:31;;;;;;;1.07;0.10;;;;;;;;;;6191584;23;20186;-65
2021/03/19 03:23:57;;;;;;;20.17;0.53;;;;;;;;;;6194268;23;20186;-64
2021/03/19 03:26:24;;;;;;;0.60;0.60;;;;;;;;;;6189644;23;20296;-64
2021/03/19 03:28:51;;;;;;;0.00;0.00;;;;;;;;;;6188708;23;20751;-65
2021/03/19 03:31:18;;;;;;;0.00;0.00;;;;;;;;;;6190275;23;20226;-64
2021/03/19 03:33:45;;;;;;;0.13;0.13;;;;;;;;;;6191046;23;20685;-65
2021/03/19 03:36:11;;;;;;;0.00;0.00;;;;;;;;;;6191201;23;20186;-64
2021/03/19 03:38:38;;;;;;;4.50;0.87;;;;;;;;;;6191836;23;20184;-64
2021/03/19 03:41:06;;;;;;;0.20;0.20;;;;;;;;;;6190937;23;20191;-64
2021/03/19 03:43:33;;;;;;;0.00;0.00;;;;;;;;;;6195803;23;20184;-64
2021/03/19 03:46:01;;;;;;;0.13;0.13;;;;;;;;;;6195961;23;20221;-65
2021/03/19 03:48:29;;;;;;;0.00;0.00;;;;;;;;;;6190885;23;20183;-65
2021/03/19 03:50:56;;;;;;;0.00;0.00;;;;;;;;;;6188142;23;20206;-65
2021/03/19 03:53:23;;;;;;;2.30;1.80;;;;;;;;;;6193951;23;20291;-65
2021/03/19 03:55:49;;;;;;;0.00;0.00;;;;;;;;;;6192144;23;20721;-65
2021/03/19 03:58:16;;;;;;;0.47;0.47;;;;;;;;;;6191468;23;20265;-65
2021/03/19 04:00:43;;;;;;;0.10;0.10;;;;;;;;;;6191552;23;20214;-64
2021/03/19 04:03:10;;;;;;;0.27;0.27;;;;;;;;;;6191109;23;20180;-64
2021/03/19 04:05:39;;;;;;;0.47;0.20;;;;;;;;;;6193116;23;20210;-64
2021/03/19 04:08:06;;;;;;;0.37;0.20;;;;;;;;;;6193599;23;20190;-64
2021/03/19 04:10:33;;;;;;;0.00;0.00;;;;;;;;;;6194286;23;20198;-65
2021/03/19 04:13:00;;;;;;;0.33;0.10;;;;;;;;;;6194480;23;20830;-64
2021/03/19 04:15:27;;;;;;;0.00;0.00;;;;;;;;;;6194299;23;21116;-64
2021/03/19 04:17:57;;;;;;;0.10;0.10;;;;;;;;;;6193588;23;20673;-64
2021/03/19 04:20:25;;;;;;;0.30;0.30;;;;;;;;;;6193895;23;20528;-64
2021/03/19 04:22:52;;;;;;;0.10;0.10;;;;;;;;;;6192960;23;20190;-65
2021/03/19 04:25:18;;;;;;;0.10;0.10;;;;;;;;;;6194379;23;20191;-65
2021/03/19 04:27:47;;;;;;;3.07;1.40;;;;;;;;;;6194283;23;20904;-65
2021/03/19 04:30:18;;;;;;;0.43;0.43;;;;;;;;;;6195639;23;20814;-64
2021/03/19 04:32:45;;;;;;;0.40;0.40;;;;;;;;;;6193017;23;20966;-64
2021/03/19 04:35:11;;;;;;;0.10;0.10;;;;;;;;;;6192960;23;20188;-64
2021/03/19 04:37:38;;;;;;;0.13;0.13;;;;;;;;;;6193737;23;20195;-65
2021/03/19 04:40:05;;;;;;;0.10;0.10;;;;;;;;;;6194579;23;20186;-65
2021/03/19 04:42:33;;;;;;;0.10;0.10;;;;;;;;;;6194672;23;20190;-65
2021/03/19 04:45:00;;;;;;;8.40;0.73;;;;;;;;;;6168293;23;20250;-65
2021/03/19 04:47:26;;;;;;;0.10;0.10;;;;;;;;;;6195235;23;20266;-65
2021/03/19 04:49:53;;;;;;;1.20;1.20;;;;;;;;;;6194907;23;20269;-64
2021/03/19 04:52:20;;;;;;;0.10;0.10;;;;;;;;;;6195136;23;20939;-65
2021/03/19 04:54:46;;;;;;;0.37;0.37;;;;;;;;;;6193556;23;20180;-64
2021/03/19 04:57:13;;;;;;;0.57;0.57;;;;;;;;;;6192837;23;20179;-65
2021/03/19 04:59:39;;;;;;;0.27;0.27;;;;;;;;;;6194193;23;20193;-64
2021/03/19 05:02:06;;;;;;;0.10;0.10;;;;;;;;;;6195207;23;20187;-64
2021/03/19 05:04:32;;;;;;;0.10;0.10;;;;;;;;;;6194896;23;20193;-64
2021/03/19 05:07:08;;;;;;;0.33;0.20;;;;;;;;;;6193580;23;20253;-64
2021/03/19 05:09:35;;;;;;;0.10;0.10;;;;;;;;;;6191347;23;20198;-65
2021/03/19 05:12:03;;;;;;;0.47;0.47;;;;;;;;;;6191956;23;20682;-65
2021/03/19 05:14:29;;;;;;;0.10;0.10;;;;;;;;;;6193824;23;20289;-64
2021/03/19 05:16:56;;;;;;;0.10;0.10;;;;;;;;;;6194456;23;20518;-64
2021/03/19 05:19:24;;;;;;;2.63;1.47;;;;;;;;;;6190933;23;20994;-64
2021/03/19 05:21:51;;;;;;;0.43;0.43;;;;;;;;;;6192874;23;20495;-64
2021/03/19 05:24:17;;;;;;;5.73;0.60;;;;;;;;;;6194347;23;20197;-64
2021/03/19 05:26:44;;;;;;;2.07;0.93;;;;;;;;;;6194534;23;20362;-64
2021/03/19 05:29:12;;;;;;;0.10;0.10;;;;;;;;;;6194547;23;20298;-65
2021/03/19 05:31:39;;;;;;;6.20;4.00;;;;;;;;;;6194287;23;20789;-65
2021/03/19 05:34:05;;;;;;;4.33;1.23;;;;;;;;;;6194377;23;20438;-65
2021/03/19 05:36:33;;;;;;;1.23;0.97;;;;;;;;;;6194958;23;20183;-64
2021/03/19 05:39:00;;;;;;;0.10;0.10;;;;;;;;;;6193112;23;21081;-65
2021/03/19 05:41:28;;;;;;;0.17;0.17;;;;;;;;;;6194385;23;20183;-62
2021/03/19 05:44:08;;;;;;;0.10;0.10;;;;;;;;;;6195626;23;20187;-62
2021/03/19 05:46:40;;;;;;;0.20;0.20;;;;;;;;;;6196516;23;20723;-62
2021/03/19 05:49:10;;;;;;;0.83;0.37;;;;;;;;;;6196768;23;20186;-65
2021/03/19 05:51:41;;;;;;;0.10;0.10;;;;;;;;;;6193899;23;20186;-64
2021/03/19 05:54:17;;;;;;;0.10;0.10;;;;;;;;;;6195354;23;20189;-64
2021/03/19 05:56:44;;;;;;;0.57;0.57;;;;;;;;;;6193968;23;20244;-64
2021/03/19 05:59:10;;;;;;;1.33;0.43;;;;;;;;;;6193861;23;20187;-64
2021/03/19 06:01:38;;;;;;;0.10;0.10;;;;;;;;;;6196384;23;20190;-64
2021/03/19 06:04:04;;;;;;;0.13;0.13;;;;;;;;;;6193473;23;20178;-64
2021/03/19 06:06:47;;;;;;;0.23;0.23;;;;;;;;;;6192802;23;20204;-65
2021/03/19 06:09:26;;;;;;;0.30;0.30;;;;;;;;;;6195256;23;20199;-64
2021/03/19 06:11:54;;;;;;;3.10;1.03;;;;;;;;;;6195788;23;20670;-62
2021/03/19 06:14:21;;;;;;;0.47;0.47;;;;;;;;;;6198016;23;20286;-64
2021/03/19 06:16:48;;;;;;;0.93;0.17;;;;;;;;;;6198350;23;20677;-64
2021/03/19 06:19:29;;;;;;;0.97;0.97;;;;;;;;;;6196146;23;20193;-64
2021/03/19 06:22:06;;;;;;;1.03;0.20;;;;;;;;;;6197191;23;20195;-64
2021/03/19 06:24:33;;;;;;;0.10;0.10;;;;;;;;;;6196314;23;20191;-64
2021/03/19 06:27:32;;;;;;;0.10;0.10;;;;;;;;;;6191979;23;20155;-65
2021/03/19 06:30:01;;;;;;;0.30;0.30;;;;;;;;;;6113822;23;20195;-65
2021/03/19 06:32:29;;;;;;;4.67;2.50;;;;;;;;;;6193907;23;20541;-64
2021/03/19 06:35:10;;;;;;;0.50;0.30;;;;;;;;;;6195124;23;20153;-64
2021/03/19 06:37:41;;;;;;;0.33;0.33;;;;;;;;;;6194557;23;20155;-64
2021/03/19 06:40:17;;;;;;;0.10;0.10;;;;;;;;;;6196432;23;20154;-65
2021/03/19 06:42:43;;;;;;;0.53;0.53;;;;;;;;;;6196977;23;20612;-65
2021/03/19 06:45:17;;;;;;;3.03;0.73;;;;;;;;;;6196861;23;20197;-64
2021/03/19 06:47:45;;;;;;;0.40;0.40;;;;;;;;;;6196427;23;20961;-64
2021/03/19 06:50:35;;;;;;;0.43;0.43;;;;;;;;;;6196021;23;20174;-65
2021/03/19 06:53:22;;;;;;;1.00;1.00;;;;;;;;;;6197413;23;20162;-64
2021/03/19 06:55:52;;;;;;;0.20;0.20;;;;;;;;;;6196121;23;20145;-64
2021/03/19 06:58:37;;;;;;;1.60;0.50;;;;;;;;;;6194086;23;20143;-64
2021/03/19 07:01:04;;;;;;;0.97;0.50;;;;;;;;;;6195505;23;20178;-64
2021/03/19 07:03:40;;;;;;;2.03;0.77;;;;;;;;;;6196881;23;20177;-65
2021/03/19 07:06:25;;;;;;;0.47;0.47;;;;;;;;;;6197181;23;20209;-65
2021/03/19 07:09:00;;;;;;;0.13;0.13;;;;;;;;;;6197273;23;20609;-64
2021/03/19 07:11:41;;;;;;;4.60;1.20;;;;;;;;;;6195881;23;20190;-62
2021/03/19 07:14:10;;;;;;;0.30;0.30;;;;;;;;;;6196417;23;20202;-64
2021/03/19 07:16:56;;;;;;;0.30;0.30;;;;;;;;;;6197534;23;20593;-64
2021/03/19 07:19:26;;;;;;;4.63;1.03;;;;;;;;;;6193717;23;20223;-64
2021/03/19 07:21:53;;;;;;;0.20;0.20;;;;;;;;;;6195965;23;20201;-64
2021/03/19 07:24:26;;;;;;;0.20;0.20;;;;;;;;;;6195658;23;20649;-64
2021/03/19 07:26:55;;;;;;;1.00;1.00;;;;;;;;;;6193745;23;20168;-64
2021/03/19 07:29:31;;;;;;;0.30;0.30;;;;;;;;;;6194898;23;20679;-64
2021/03/19 07:32:16;;;;;;;0.10;0.10;;;;;;;;;;6195330;23;20171;-64
2021/03/19 13:32:50;;;;;;;0.10;0.10;;;;;;;;;;5074336;28;20276;-62
2021/03/19 13:35:24;;;;;;;0.10;0.10;;;;;;;;;;5065229;28;21125;-62
2021/03/19 13:37:51;;;;;;;0.73;0.73;;;;;;;;;;5074746;28;20169;-63
2021/03/19 13:40:22;;;;;;;0.33;0.33;;;;;;;;;;5075561;28;20537;-62
2021/03/19 13:42:48;;;;;;;2.60;0.63;;;;;;;;;;5074292;28;20171;-62
2021/03/19 13:45:15;;;;;;;0.17;0.17;;;;;;;;;;5071965;28;20661;-62
2021/03/19 13:47:42;;;;;;;0.00;0.00;;;;;;;;;;5058749;28;20184;-62
2021/03/19 13:50:08;;;;;;;29.93;1.90;;;;;;;;;;5054746;28;20178;-63
2021/03/19 13:52:35;;;;;;;0.43;0.43;;;;;;;;;;5061041;28;20306;-63
2021/03/19 13:55:02;;;;;;;0.33;0.33;;;;;;;;;;5070875;28;20262;-62
2021/03/19 13:57:29;;;;;;;0.00;0.00;;;;;;;;;;5074740;28;20675;-62
2021/03/19 13:59:56;;;;;;;17.60;1.10;;;;;;;;;;5063587;28;20580;-62
2021/03/19 14:02:24;;;;;;;0.20;0.20;;;;;;;;;;5069738;28;20272;-62
2021/03/19 14:04:51;;;;;;;2.83;0.30;;;;;;;;;;5074485;28;21191;-63
2021/03/19 14:07:17;;;;;;;5.87;0.73;;;;;;;;;;5072224;28;20254;-62
2021/03/19 14:09:45;;;;;;;0.67;0.67;;;;;;;;;;5070031;28;20170;-62
2021/03/19 14:12:12;;;;;;;10.33;0.90;;;;;;;;;;5060216;28;20209;-63
2021/03/19 14:14:38;;;;;;;3.27;1.10;;;;;;;;;;5059324;28;20212;-63
2021/03/19 14:17:05;;;;;;;1.03;0.37;;;;;;;;;;5057580;28;20290;-63
2021/03/19 14:19:31;;;;;;;0.60;0.33;;;;;;;;;;5066886;28;20167;-63
2021/03/19 14:21:58;;;;;;;0.40;0.20;;;;;;;;;;5066411;28;20171;-62
2021/03/19 14:24:24;;;;;;;5.37;1.97;;;;;;;;;;5067021;28;20215;-62
2021/03/19 14:26:51;;;;;;;2.83;0.63;;;;;;;;;;5036328;28;20294;-63
2021/03/19 14:29:17;;;;;;;0.73;0.73;;;;;;;;;;5062258;28;20185;-63
2021/03/19 14:31:44;;;;;;;0.87;0.33;;;;;;;;;;5069771;28;20218;-63
2021/03/19 14:34:11;;;;;;;9.03;1.50;;;;;;;;;;5050027;28;20180;-62
2021/03/19 14:36:40;;;;;;;8.00;1.07;;;;;;;;;;5064507;28;20797;-62
2021/03/19 14:39:07;;;;;;;3.30;0.83;;;;;;;;;;5064563;28;20209;-62
2021/03/19 14:41:34;;;;;;;3.43;0.30;;;;;;;;;;5059229;28;20181;-63
2021/03/19 14:44:00;;;;;;;0.87;0.50;;;;;;;;;;5047520;28;20261;-63
2021/03/19 14:46:28;;;;;;;0.10;0.10;;;;;;;;;;5041833;28;20249;-62
2021/03/19 14:48:54;;;;;;;0.30;0.30;;;;;;;;;;5040861;28;20191;-62
2021/03/19 14:51:21;;;;;;;0.47;0.40;;;;;;;;;;5059193;28;20199;-63
2021/03/19 14:53:50;;;;;;;0.30;0.20;;;;;;;;;;5056234;28;20165;-63
2021/03/19 14:56:17;;;;;;;4.43;0.73;;;;;;;;;;5040340;28;20169;-64
2021/03/19 14:58:44;;;;;;;0.10;0.10;;;;;;;;;;5040226;28;20238;-63
2021/03/19 15:01:10;;;;;;;0.43;0.43;;;;;;;;;;5040226;28;20251;-62
2021/03/19 15:03:38;;;;;;;0.10;0.10;;;;;;;;;;5039986;28;20168;-62
2021/03/19 15:06:05;;;;;;;0.20;0.20;;;;;;;;;;5039576;28;20181;-62
2021/03/19 15:08:31;;;;;;;0.20;0.20;;;;;;;;;;5043146;28;20263;-63
2021/03/19 15:10:58;;;;;;;0.70;0.27;;;;;;;;;;5059792;28;20198;-63
2021/03/19 15:13:25;;;;;;;0.10;0.10;;;;;;;;;;5057390;28;20184;-62
2021/03/19 15:15:53;;;;;;;0.23;0.07;;;;;;;;;;5049148;28;20408;-62
2021/03/19 15:18:20;;;;;;;0.00;0.00;;;;;;;;;;5053702;28;20246;-63
2021/03/19 15:20:49;;;;;;;0.57;0.10;;;;;;;;;;5059658;28;20202;-63
2021/03/19 15:23:21;;;;;;;1.90;0.70;;;;;;;;;;5057430;28;20180;-63
2021/03/19 15:25:48;;;;;;;0.40;0.20;;;;;;;;;;5039726;28;20172;-63
2021/03/19 15:28:14;;;;;;;1.20;0.60;;;;;;;;;;5039594;28;20191;-62
2021/03/19 15:30:41;;;;;;;0.20;0.10;;;;;;;;;;5037059;28;20197;-63
2021/03/19 15:33:07;;;;;;;0.93;0.77;;;;;;;;;;5037335;28;20188;-63
2021/03/19 15:35:34;;;;;;;0.20;0.20;;;;;;;;;;5042377;28;20205;-62
2021/03/19 15:38:04;;;;;;;0.47;0.33;;;;;;;;;;5020140;28;21474;-62
2021/03/19 15:40:34;;;;;;;4.17;0.60;;;;;;;;;;5038089;28;20178;-62
2021/03/19 15:43:01;;;;;;;0.77;0.43;;;;;;;;;;5037623;28;20175;-63
2021/03/19 15:45:28;;;;;;;0.10;0.10;;;;;;;;;;5042231;28;20202;-62
2021/03/19 15:47:54;;;;;;;4.43;0.37;;;;;;;;;;5048834;28;20186;-63
2021/03/19 15:50:23;;;;;;;1.57;0.50;;;;;;;;;;5048633;28;20180;-62
2021/03/19 15:52:50;;;;;;;4.53;0.20;;;;;;;;;;5040374;28;20185;-63
2021/03/19 15:55:16;;;;;;;0.87;0.80;;;;;;;;;;5037589;28;20184;-62
2021/03/19 15:57:43;;;;;;;2.73;0.60;;;;;;;;;;5040198;28;20758;-63
2021/03/19 16:00:10;;;;;;;0.57;0.33;;;;;;;;;;5051797;28;20180;-63
2021/03/19 16:02:36;;;;;;;1.33;1.03;;;;;;;;;;5043456;28;20184;-62
2021/03/19 16:05:05;;;;;;;1.20;0.30;;;;;;;;;;5053984;28;20183;-62
2021/03/19 16:07:32;;;;;;;1.37;1.27;;;;;;;;;;5058158;28;20169;-63
2021/03/19 16:09:58;;;;;;;3.60;0.87;;;;;;;;;;5049186;28;20938;-63
2021/03/19 16:12:25;;;;;;;0.33;0.30;;;;;;;;;;5037409;28;20207;-62
2021/03/19 16:14:52;;;;;;;1.10;0.27;;;;;;;;;;5051706;28;20172;-63
2021/03/19 16:17:19;;;;;;;1.03;0.20;;;;;;;;;;5055460;28;20187;-62
2021/03/19 16:19:46;;;;;;;1.23;0.17;;;;;;;;;;5022884;28;20686;-63
2021/03/19 16:22:12;;;;;;;1.50;0.73;;;;;;;;;;5056529;28;20196;-63
2021/03/19 16:24:39;;;;;;;0.20;0.20;;;;;;;;;;5051842;28;20199;-62
2021/03/19 16:27:05;;;;;;;0.10;0.10;;;;;;;;;;5048048;28;20185;-63
2021/03/19 16:29:32;;;;;;;0.10;0.10;;;;;;;;;;5038526;28;20607;-62
2021/03/19 16:31:58;;;;;;;0.30;0.20;;;;;;;;;;5019481;28;20265;-62
2021/03/19 16:34:25;;;;;;;0.03;0.03;;;;;;;;;;5039192;28;20184;-62
2021/03/19 16:36:52;;;;;;;0.17;0.17;;;;;;;;;;5047739;28;20256;-62
2021/03/19 16:39:18;;;;;;;0.47;0.40;;;;;;;;;;5048328;28;20186;-62
2021/03/19 16:41:45;;;;;;;0.20;0.20;;;;;;;;;;5057721;28;20694;-62
2021/03/19 16:44:11;;;;;;;0.30;0.30;;;;;;;;;;5053648;28;20185;-63
2021/03/19 16:46:38;;;;;;;1.00;0.30;;;;;;;;;;5046002;28;20183;-62
2021/03/19 16:49:05;;;;;;;0.00;0.00;;;;;;;;;;5058282;28;20194;-62
2021/03/19 16:51:33;;;;;;;0.30;0.00;;;;;;;;;;5044746;28;20219;-63
2021/03/19 16:54:00;;;;;;;0.00;0.00;;;;;;;;;;5037310;28;20170;-63
2021/03/19 16:56:27;;;;;;;0.10;0.10;;;;;;;;;;5018407;28;20165;-62
2021/03/19 16:58:54;;;;;;;0.10;0.10;;;;;;;;;;5037436;28;20564;-63
2021/03/19 17:01:23;;;;;;;1.27;0.57;;;;;;;;;;5045854;28;20916;-62
2021/03/19 17:03:50;;;;;;;1.50;0.40;;;;;;;;;;5057438;28;20917;-63
2021/03/19 17:06:18;;;;;;;0.47;0.20;;;;;;;;;;5049226;28;20176;-63
2021/03/19 17:08:47;;;;;;;0.10;0.10;;;;;;;;;;5037723;28;20263;-62
2021/03/19 17:11:13;;;;;;;0.80;0.47;;;;;;;;;;5037036;28;20286;-62
2021/03/19 17:13:40;;;;;;;0.00;0.00;;;;;;;;;;5036814;28;20181;-63
2021/03/19 17:16:07;;;;;;;0.57;0.20;;;;;;;;;;5037547;28;20179;-62
2021/03/19 17:18:34;;;;;;;0.27;0.27;;;;;;;;;;5036588;28;20912;-63
2021/03/19 17:21:01;;;;;;;2.43;0.30;;;;;;;;;;5020453;28;20200;-63
2021/03/19 17:23:29;;;;;;;0.60;0.30;;;;;;;;;;5054962;28;20204;-63
2021/03/19 17:25:57;;;;;;;0.10;0.10;;;;;;;;;;5056013;28;20191;-63
2021/03/19 17:28:26;;;;;;;1.00;0.73;;;;;;;;;;5037911;28;20184;-63
2021/03/19 17:30:53;;;;;;;0.17;0.17;;;;;;;;;;5044600;28;20729;-64
2021/03/19 17:33:22;;;;;;;0.20;0.10;;;;;;;;;;5044651;28;20180;-63
2021/03/19 17:35:49;;;;;;;2.00;0.83;;;;;;;;;;5039624;28;20179;-63
2021/03/19 17:38:17;;;;;;;0.67;0.67;;;;;;;;;;5037174;28;20828;-63
2021/03/19 17:40:45;;;;;;;0.50;0.30;;;;;;;;;;5038501;28;20192;-63
2021/03/19 17:43:12;;;;;;;0.43;0.10;;;;;;;;;;5047406;28;20190;-63
2021/03/19 17:45:43;;;;;;;2.00;0.90;;;;;;;;;;5042990;28;20223;-63
2021/03/19 17:48:10;;;;;;;1.90;0.13;;;;;;;;;;5043599;28;21056;-63
2021/03/19 17:50:38;;;;;;;0.87;0.30;;;;;;;;;;5044060;28;20289;-63
2021/03/19 17:53:06;;;;;;;0.30;0.30;;;;;;;;;;5049137;28;20194;-63
2021/03/19 17:55:32;;;;;;;0.87;0.37;;;;;;;;;;5052658;28;20658;-63
2021/03/19 17:57:59;;;;;;;0.30;0.30;;;;;;;;;;5044771;28;20181;-63
2021/03/19 18:00:27;;;;;;;1.10;0.20;;;;;;;;;;5046838;28;20897;-63
2021/03/19 18:02:53;;;;;;;1.73;0.30;;;;;;;;;;5045827;28;20795;-62
2021/03/19 18:05:21;;;;;;;1.50;0.50;;;;;;;;;;5041015;28;20197;-63
2021/03/19 18:07:48;;;;;;;0.00;0.00;;;;;;;;;;5039516;28;20656;-64
2021/03/19 18:10:15;;;;;;;0.37;0.37;;;;;;;;;;5049798;28;20169;-63
2021/03/19 18:12:42;;;;;;;0.57;0.57;;;;;;;;;;5038928;28;20200;-63
2021/03/19 18:15:10;;;;;;;0.00;0.00;;;;;;;;;;5047902;28;20582;-63
2021/03/19 18:17:36;;;;;;;0.10;0.10;;;;;;;;;;5031180;28;20184;-63
2021/03/19 18:20:04;;;;;;;1.13;0.70;;;;;;;;;;5040912;28;20185;-63
2021/03/19 18:22:31;;;;;;;0.30;0.30;;;;;;;;;;5042840;28;20172;-63
2021/03/19 18:24:57;;;;;;;0.00;0.00;;;;;;;;;;5057095;28;20171;-63
2021/03/19 18:27:25;;;;;;;0.63;0.53;;;;;;;;;;5060592;28;20190;-63
2021/03/19 18:29:52;;;;;;;0.20;0.20;;;;;;;;;;5052044;28;20550;-63
2021/03/19 18:32:19;;;;;;;0.23;0.20;;;;;;;;;;5046692;28;20261;-63
2021/03/19 18:34:46;;;;;;;0.30;0.30;;;;;;;;;;5049941;28;21255;-62
2021/03/19 18:37:15;;;;;;;5.10;3.20;;;;;;;;;;5052198;28;20171;-63
2021/03/19 18:39:41;;;;;;;0.10;0.10;;;;;;;;;;5047296;28;20176;-62
2021/03/19 18:42:08;;;;;;;0.20;0.20;;;;;;;;;;5053946;28;20219;-63
2021/03/19 18:44:35;;;;;;;0.77;0.20;;;;;;;;;;5056999;28;20159;-63
2021/03/19 18:47:01;;;;;;;0.20;0.20;;;;;;;;;;5039984;28;20657;-63
2021/03/19 18:49:30;;;;;;;1.00;0.57;;;;;;;;;;5037383;28;20236;-63
2021/03/19 18:51:57;;;;;;;0.00;0.00;;;;;;;;;;5039378;28;20206;-62
2021/03/19 18:54:23;;;;;;;0.33;0.33;;;;;;;;;;5058286;28;20173;-62
2021/03/19 18:56:50;;;;;;;0.57;0.47;;;;;;;;;;5056046;28;20166;-62
2021/03/19 18:59:16;;;;;;;0.00;0.00;;;;;;;;;;5059188;28;20173;-62
2021/03/19 19:01:43;;;;;;;0.00;0.00;;;;;;;;;;5060093;28;20164;-62
2021/03/19 19:04:13;;;;;;;2.00;1.10;;;;;;;;;;5059820;28;20798;-63
2021/03/19 19:06:40;;;;;;;0.00;0.00;;;;;;;;;;5058594;28;20924;-62
2021/03/19 19:09:07;;;;;;;0.00;0.00;;;;;;;;;;5046146;28;20178;-62
2021/03/19 19:11:33;;;;;;;3.37;0.93;;;;;;;;;;5039067;28;20596;-63
2021/03/19 19:14:00;;;;;;;0.00;0.00;;;;;;;;;;5040188;28;20198;-62
2021/03/19 19:16:27;;;;;;;0.50;0.27;;;;;;;;;;5039340;28;20183;-62
2021/03/19 19:18:53;;;;;;;0.10;0.10;;;;;;;;;;5038844;28;20808;-62
2021/03/19 19:21:20;;;;;;;3.97;0.63;;;;;;;;;;5050879;28;20252;-62
2021/03/19 19:23:46;;;;;;;0.00;0.00;;;;;;;;;;5059245;28;20169;-63
2021/03/19 19:26:13;;;;;;;2.83;0.77;;;;;;;;;;5059400;28;20168;-63
2021/03/19 19:28:39;;;;;;;0.37;0.37;;;;;;;;;;5059688;28;20176;-62
2021/03/19 19:31:07;;;;;;;0.00;0.00;;;;;;;;;;5059151;28;20236;-63
2021/03/19 19:33:34;;;;;;;1.70;0.60;;;;;;;;;;5056130;28;20167;-63
2021/03/19 19:36:01;;;;;;;1.90;0.50;;;;;;;;;;5049541;28;20244;-62
2021/03/19 19:38:29;;;;;;;0.50;0.50;;;;;;;;;;5059626;28;20167;-62
2021/03/19 19:40:57;;;;;;;0.30;0.30;;;;;;;;;;5047589;28;20234;-62
2021/03/19 19:43:24;;;;;;;3.80;0.63;;;;;;;;;;5039726;28;20176;-63
2021/03/19 19:45:51;;;;;;;0.10;0.03;;;;;;;;;;5038863;28;20202;-63
2021/03/19 19:48:18;;;;;;;0.10;0.10;;;;;;;;;;5050249;28;20167;-63
2021/03/19 19:50:46;;;;;;;0.20;0.03;;;;;;;;;;5058187;28;20275;-62
2021/03/19 19:53:13;;;;;;;0.17;0.17;;;;;;;;;;5058889;28;20246;-62
2021/03/19 19:55:40;;;;;;;0.17;0.17;;;;;;;;;;5040586;28;20190;-62
2021/03/19 19:58:11;;;;;;;4.00;0.47;;;;;;;;;;5038638;28;20164;-62
2021/03/19 20:00:37;;;;;;;0.33;0.30;;;;;;;;;;5038559;28;20237;-63
2021/03/19 20:03:04;;;;;;;0.93;0.43;;;;;;;;;;5038243;28;20164;-62
2021/03/19 20:05:31;;;;;;;0.50;0.20;;;;;;;;;;5040409;28;20943;-62
2021/03/19 20:07:58;;;;;;;5.07;4.60;;;;;;;;;;5038829;28;20168;-62
2021/03/19 20:10:26;;;;;;;1.30;0.83;;;;;;;;;;5038158;28;20682;-62
2021/03/19 20:12:54;;;;;;;0.73;0.30;;;;;;;;;;5037818;28;20249;-62
2021/03/19 20:15:22;;;;;;;2.33;0.37;;;;;;;;;;5037979;28;20160;-63
2021/03/19 20:17:49;;;;;;;0.40;0.40;;;;;;;;;;5037123;28;20163;-62
2021/03/19 20:20:17;;;;;;;0.10;0.10;;;;;;;;;;5038245;28;20205;-62
2021/03/19 20:22:43;;;;;;;0.97;0.20;;;;;;;;;;5040211;28;20187;-62
2021/03/19 20:25:12;;;;;;;0.63;0.63;;;;;;;;;;5038130;28;20167;-62
2021/03/19 20:27:39;;;;;;;0.40;0.20;;;;;;;;;;5050410;28;20232;-62
2021/03/19 20:30:07;;;;;;;0.20;0.20;;;;;;;;;;5057891;28;20940;-62
2021/03/19 20:32:33;;;;;;;2.70;0.47;;;;;;;;;;5041859;28;20325;-62
2021/03/19 20:35:00;;;;;;;0.07;0.07;;;;;;;;;;5033614;28;20165;-63
2021/03/19 20:37:26;;;;;;;0.00;0.00;;;;;;;;;;5037891;28;20646;-62
2021/03/19 20:39:53;;;;;;;0.23;0.10;;;;;;;;;;5037929;28;20164;-62
2021/03/19 20:42:21;;;;;;;3.80;0.50;;;;;;;;;;5036856;28;20566;-62
2021/03/19 20:44:48;;;;;;;1.60;0.43;;;;;;;;;;5037581;28;20168;-62
2021/03/19 20:47:33;;;;;;;0.30;0.30;;;;;;;;;;5036856;28;20704;-61
2021/03/19 20:50:00;;;;;;;0.00;0.00;;;;;;;;;;5032099;28;20291;-62
2021/03/19 20:52:27;;;;;;;0.00;0.00;;;;;;;;;;5023980;28;20199;-63